Transporter — 3FFV9 — position and weather

sailwx.info

Track history (hours):
 
Tides and Currents Weather Stations Pressure Air Temp Water Temp Dewpoint Dewpoint Depression Visibility Wind Speed Wind Dir Waves Ship Positions

Transporter

Last reported at 2018-Apr-21 22:27 UTC. Time now 2018-Apr-22 02:58 UTC.
Position N 36°31' E 015°18'.

; draft 6.7 m.

Type: Ship. MMSI: 353589000.

Date/timePositionNaut miles runAvg speedWind from/ knotsBaromVisibWave heightAir tempDewpointWater temp
2018-Apr-21 22:27N 36°31' E 015°18'613.2
2018-Apr-21 22:00N 36°31' E 015°11'1317.3
2018-Apr-21 21:13N 36°34' E 014°54'415.5
2018-Apr-21 20:59N 36°35' E 014°50'816.3
2018-Apr-21 20:28N 36°37' E 014°40'816.5
2018-Apr-21 20:00N 36°39' E 014°31'1118.0
2018-Apr-21 19:24N 36°43' E 014°18'918.9
2018-Apr-21 18:57N 36°48' E 014°10'715.3
2018-Apr-21 18:29N 36°52' E 014°03'917.9
2018-Apr-21 18:00N 36°57' E 013°53'510.1
2018-Apr-21 17:30N 36°59' E 013°48'1018.3
2018-Apr-21 16:58N 37°04' E 013°37'815.4
2018-Apr-21 16:27N 37°08' E 013°28'1219.1
2018-Apr-21 15:51N 37°13' E 013°16'410.3
2018-Apr-21 15:30N 37°15' E 013°12'816.4
2018-Apr-21 15:00N 37°19' E 013°03'816.0
2018-Apr-21 14:30N 37°23' E 012°54'916.9
2018-Apr-21 13:59N 37°27' E 012°44'1016.1
2018-Apr-21 13:23N 37°32' E 012°34'4215.9
2018-Apr-21 10:46N 37°47' E 011°45'517.1
2018-Apr-21 10:29N 37°48' E 011°38'58415.6
2018-Apr-19 21:06N 37°28' W 000°39'1 9.9
2018-Apr-19 21:00N 37°28' W 000°40'1 2.4
2018-Apr-19 20:29N 37°27' W 000°42'714.1
2018-Apr-19 20:00N 37°29' W 000°50'232 6.9
2018-Apr-18 10:12N 35°56' W 005°16'210.9
2018-Apr-18 10:01N 35°55' W 005°18'1 2.6
2018-Apr-18 09:27N 35°54' W 005°19'0 0.0
2018-Apr-18 09:00N 35°54' W 005°19'0 0.0
2018-Apr-18 08:30N 35°54' W 005°19'0 0.0
2018-Apr-18 08:00N 35°54' W 005°19'0 0.0
2018-Apr-18 07:30N 35°54' W 005°19'0 0.0
2018-Apr-18 07:00N 35°54' W 005°19'0 0.0
2018-Apr-18 06:30N 35°54' W 005°19'0 0.0
2018-Apr-18 06:00N 35°54' W 005°19'0 0.0
2018-Apr-18 05:30N 35°54' W 005°19'0 0.0
2018-Apr-18 05:00N 35°54' W 005°19'0 0.0
2018-Apr-18 04:30N 35°54' W 005°19'0 0.0
2018-Apr-18 04:00N 35°54' W 005°19'0 0.1
2018-Apr-18 03:30N 35°54' W 005°19'1 2.3
2018-Apr-18 03:01N 35°55' W 005°18'1 2.1
2018-Apr-18 02:30N 35°56' W 005°19'1 2.2
2018-Apr-18 02:00N 35°56' W 005°20'4 8.6
2018-Apr-18 01:31N 35°58' W 005°25'65414.0
2018-Apr-16 02:37N 28°54' W 015°16'212.8
2018-Apr-16 02:27N 28°52' W 015°18'613.0
2018-Apr-16 01:58N 28°49' W 015°23'613.0
2018-Apr-16 01:30N 28°45' W 015°29'713.1
2018-Apr-16 01:00N 28°41' W 015°34'713.1
2018-Apr-16 00:29N 28°36' W 015°40'613.0
2018-Apr-16 00:00N 28°32' W 015°45'612.8
2018-Apr-15 23:30N 28°27' W 015°50'612.6
2018-Apr-15 23:00N 28°22' W 015°55'  
Track history (hours):
 
Tides and Currents Weather Stations Pressure Air Temp Water Temp Dewpoint Dewpoint Depression Visibility Wind Speed Wind Dir Waves Ship Positions

Transporter

Last reported at 2018-Apr-21 22:27 UTC. Time now 2018-Apr-22 02:58 UTC.
Position N 36°31' E 015°18'.

; draft 6.7 m.

Type: Ship. MMSI: 353589000.

Date/timePositionNaut miles runAvg speedWind from/ knotsBaromVisibWave heightAir tempDewpointWater temp
2018-Apr-21 22:27N 36°31' E 015°18'613.2
2018-Apr-21 22:00N 36°31' E 015°11'1317.3
2018-Apr-21 21:13N 36°34' E 014°54'415.5
2018-Apr-21 20:59N 36°35' E 014°50'816.3
2018-Apr-21 20:28N 36°37' E 014°40'816.5
2018-Apr-21 20:00N 36°39' E 014°31'1118.0
2018-Apr-21 19:24N 36°43' E 014°18'918.9
2018-Apr-21 18:57N 36°48' E 014°10'715.3
2018-Apr-21 18:29N 36°52' E 014°03'917.9
2018-Apr-21 18:00N 36°57' E 013°53'510.1
2018-Apr-21 17:30N 36°59' E 013°48'1018.3
2018-Apr-21 16:58N 37°04' E 013°37'815.4
2018-Apr-21 16:27N 37°08' E 013°28'1219.1
2018-Apr-21 15:51N 37°13' E 013°16'410.3
2018-Apr-21 15:30N 37°15' E 013°12'816.4
2018-Apr-21 15:00N 37°19' E 013°03'816.0
2018-Apr-21 14:30N 37°23' E 012°54'916.9
2018-Apr-21 13:59N 37°27' E 012°44'1016.1
2018-Apr-21 13:23N 37°32' E 012°34'4215.9
2018-Apr-21 10:46N 37°47' E 011°45'517.1
2018-Apr-21 10:29N 37°48' E 011°38'58415.6
2018-Apr-19 21:06N 37°28' W 000°39'1 9.9
2018-Apr-19 21:00N 37°28' W 000°40'1 2.4
2018-Apr-19 20:29N 37°27' W 000°42'714.1
2018-Apr-19 20:00N 37°29' W 000°50'232 6.9
2018-Apr-18 10:12N 35°56' W 005°16'210.9
2018-Apr-18 10:01N 35°55' W 005°18'1 2.6
2018-Apr-18 09:27N 35°54' W 005°19'0 0.0
2018-Apr-18 09:00N 35°54' W 005°19'0 0.0
2018-Apr-18 08:30N 35°54' W 005°19'0 0.0
2018-Apr-18 08:00N 35°54' W 005°19'0 0.0
2018-Apr-18 07:30N 35°54' W 005°19'0 0.0
2018-Apr-18 07:00N 35°54' W 005°19'0 0.0
2018-Apr-18 06:30N 35°54' W 005°19'0 0.0
2018-Apr-18 06:00N 35°54' W 005°19'0 0.0
2018-Apr-18 05:30N 35°54' W 005°19'0 0.0
2018-Apr-18 05:00N 35°54' W 005°19'0 0.0
2018-Apr-18 04:30N 35°54' W 005°19'0 0.0
2018-Apr-18 04:00N 35°54' W 005°19'0 0.1
2018-Apr-18 03:30N 35°54' W 005°19'1 2.3
2018-Apr-18 03:01N 35°55' W 005°18'1 2.1
2018-Apr-18 02:30N 35°56' W 005°19'1 2.2
2018-Apr-18 02:00N 35°56' W 005°20'4 8.6
2018-Apr-18 01:31N 35°58' W 005°25'65414.0
2018-Apr-16 02:37N 28°54' W 015°16'212.8
2018-Apr-16 02:27N 28°52' W 015°18'613.0
2018-Apr-16 01:58N 28°49' W 015°23'613.0
2018-Apr-16 01:30N 28°45' W 015°29'713.1
2018-Apr-16 01:00N 28°41' W 015°34'713.1
2018-Apr-16 00:29N 28°36' W 015°40'613.0
2018-Apr-16 00:00N 28°32' W 015°45'612.8
2018-Apr-15 23:30N 28°27' W 015°50'612.6
2018-Apr-15 23:00N 28°22' W 015°55'  

Dump ship's entire track history